Time;durP1;ratioP1;P1;durP2;ratioP2;P2;SDS_P1;SDS_P2;PMS_P1;PMS_P2;Temp;Humidity;BMP_temperature;BMP_pressure;BME280_temperature;BME280_humidity;BME280_pressure;Samples;Min_cycle;Max_cycle;Signal;HPM_P1;HPM_P2
2021/04/22 00:01:24;;;;;;;21.70;14.15;;;;;;;9.04;100.00;96314.94;5043728;28;20065;-54
2021/04/22 00:03:51;;;;;;;18.80;14.00;;;;;;;9.25;100.00;96317.41;5035595;28;20076;-55
2021/04/22 00:06:19;;;;;;;18.55;14.48;;;;;;;9.36;100.00;96308.53;5036313;28;20106;-55
2021/04/22 00:08:46;;;;;;;18.95;13.90;;;;;;;9.39;100.00;96311.72;5035517;28;20064;-55
2021/04/22 00:11:15;;;;;;;18.73;14.60;;;;;;;9.55;100.00;96311.13;5038315;28;20068;-53
2021/04/22 00:13:45;;;;;;;22.27;14.88;;;;;;;9.24;100.00;96313.13;5045759;28;20071;-56
2021/04/22 00:16:13;;;;;;;18.93;14.27;;;;;;;9.32;100.00;96305.34;5041833;28;20076;-54
2021/04/22 00:18:41;;;;;;;21.63;14.57;;;;;;;8.85;100.00;96297.34;5049666;28;20924;-53
2021/04/22 00:21:09;;;;;;;20.63;15.82;;;;;;;8.74;100.00;96298.31;5041491;28;20111;-56
2021/04/22 00:23:37;;;;;;;18.45;13.77;;;;;;;8.94;100.00;96300.94;5045379;28;20068;-56
2021/04/22 00:26:04;;;;;;;20.58;14.05;;;;;;;8.92;100.00;96298.47;5044653;28;20052;-55
2021/04/22 00:28:32;;;;;;;21.15;15.20;;;;;;;9.44;100.00;96301.59;5045187;28;20068;-55
2021/04/22 00:31:00;;;;;;;18.20;13.77;;;;;;;9.45;100.00;96312.97;5043471;28;20478;-54
2021/04/22 00:33:27;;;;;;;18.60;13.68;;;;;;;9.50;100.00;96305.47;5049301;28;20104;-55
2021/04/22 00:35:56;;;;;;;22.48;16.13;;;;;;;9.36;100.00;96305.91;5041304;28;20052;-56
2021/04/22 00:38:23;;;;;;;21.00;14.15;;;;;;;9.39;100.00;96298.56;5043731;28;20072;-56
2021/04/22 00:40:51;;;;;;;18.90;14.15;;;;;;;9.40;100.00;96296.78;5039542;28;20520;-55
2021/04/22 00:43:20;;;;;;;22.92;13.98;;;;;;;9.06;100.00;96301.66;5040812;28;20075;-50
2021/04/22 00:45:48;;;;;;;21.05;14.85;;;;;;;9.09;100.00;96298.75;5048252;28;20085;-51
2021/04/22 00:48:19;;;;;;;19.58;14.82;;;;;;;9.33;100.00;96304.41;5043039;28;20064;-52
2021/04/22 00:50:47;;;;;;;20.33;14.60;;;;;;;9.18;100.00;96296.09;5041577;28;20064;-48
2021/04/22 00:53:15;;;;;;;19.20;14.50;;;;;;;9.09;100.00;96306.63;5041944;28;20072;-50
2021/04/22 00:55:43;;;;;;;19.02;14.82;;;;;;;9.12;100.00;96298.44;5045969;28;20071;-51
2021/04/22 00:58:11;;;;;;;21.58;15.95;;;;;;;9.31;100.00;96292.34;5041802;28;20076;-50
2021/04/22 01:00:42;;;;;;;18.88;14.70;;;;;;;9.07;100.00;96296.25;5030741;28;20403;-51
2021/04/22 01:03:11;;;;;;;22.40;15.77;;;;;;;8.94;100.00;96282.53;5043847;28;20064;-49
2021/04/22 01:05:43;;;;;;;21.17;15.85;;;;;;;8.76;100.00;96288.50;5042008;28;20087;-51
2021/04/22 01:08:11;;;;;;;22.17;15.35;;;;;;;8.40;100.00;96286.53;5043776;28;20068;-52
2021/04/22 01:10:38;;;;;;;21.92;15.55;;;;;;;8.45;100.00;96292.19;5044987;28;20064;-48
2021/04/22 01:13:06;;;;;;;20.48;15.50;;;;;;;8.74;100.00;96294.84;5039823;28;20156;-51
2021/04/22 01:15:33;;;;;;;21.08;15.10;;;;;;;8.54;100.00;96294.84;5042506;28;20069;-51
2021/04/22 01:18:01;;;;;;;22.38;14.93;;;;;;;8.25;100.00;96302.59;5041658;28;20674;-52
2021/04/22 01:20:30;;;;;;;21.98;15.57;;;;;;;8.41;100.00;96298.69;5042528;28;20091;-53
2021/04/22 01:23:01;;;;;;;21.30;15.32;;;;;;;7.96;100.00;96301.69;5026432;28;20475;-52
2021/04/22 01:25:30;;;;;;;21.53;15.67;;;;;;;8.01;100.00;96299.50;5043418;28;20072;-51
2021/04/22 01:27:58;;;;;;;21.85;15.20;;;;;;;7.96;100.00;96299.91;5041949;28;20506;-54
2021/04/22 01:30:28;;;;;;;22.75;16.35;;;;;;;7.91;100.00;96304.69;5048437;28;20526;-54
2021/04/22 01:32:56;;;;;;;22.23;16.05;;;;;;;8.16;100.00;96303.44;5043290;28;20073;-53
2021/04/22 01:35:29;;;;;;;23.42;15.98;;;;;;;8.05;100.00;96309.63;5028680;28;20547;-51
2021/04/22 01:37:59;;;;;;;24.83;16.50;;;;;;;8.39;100.00;96306.69;5039472;28;20068;-52
2021/04/22 01:40:27;;;;;;;23.85;15.73;;;;;;;8.42;100.00;96306.41;5039593;28;20064;-52
2021/04/22 01:42:54;;;;;;;20.25;15.05;;;;;;;8.50;100.00;96309.22;5029054;28;20077;-49
2021/04/22 01:45:22;;;;;;;22.98;15.52;;;;;;;8.48;100.00;96308.50;5031709;28;20079;-50
2021/04/22 01:47:52;;;;;;;22.80;15.32;;;;;;;8.29;100.00;96311.06;5035515;28;20064;-52
2021/04/22 01:50:21;;;;;;;21.33;15.48;;;;;;;8.31;100.00;96307.34;5031990;28;20076;-51
2021/04/22 01:52:49;;;;;;;22.05;15.70;;;;;;;8.05;100.00;96311.38;5038447;28;20071;-51
2021/04/22 01:55:21;;;;;;;20.00;14.93;;;;;;;8.09;100.00;96310.19;5040343;28;20080;-54
2021/04/22 01:57:50;;;;;;;20.75;15.57;;;;;;;8.01;100.00;96312.63;5040206;28;20080;-48
2021/04/22 02:00:20;;;;;;;19.35;14.32;;;;;;;7.91;100.00;96311.75;5043473;28;20087;-49
2021/04/22 02:02:47;;;;;;;20.85;14.95;;;;;;;7.70;100.00;96319.66;5034698;28;20061;-53
2021/04/22 02:05:15;;;;;;;22.30;15.57;;;;;;;7.90;100.00;96321.44;5033905;28;20128;-51
2021/04/22 02:07:42;;;;;;;21.92;15.13;;;;;;;8.06;100.00;96323.56;5038256;28;20061;-50
2021/04/22 02:10:10;;;;;;;24.77;15.95;;;;;;;8.12;100.00;96322.19;5032748;28;20099;-54
2021/04/22 02:12:39;;;;;;;21.10;15.80;;;;;;;7.82;100.00;96321.25;5039708;28;20107;-50
2021/04/22 02:15:09;;;;;;;21.50;15.15;;;;;;;7.83;100.00;96321.13;5042047;28;20065;-52
2021/04/22 02:17:37;;;;;;;21.05;15.65;;;;;;;7.81;100.00;96319.56;5041151;28;20059;-50
2021/04/22 02:20:07;;;;;;;24.95;15.57;;;;;;;7.81;100.00;96319.56;5039176;28;20080;-50
2021/04/22 02:22:35;;;;;;;22.83;15.50;;;;;;;7.68;100.00;96314.56;5049568;28;20091;-54
2021/04/22 02:25:04;;;;;;;23.70;15.55;;;;;;;7.51;100.00;96320.41;5045669;28;20073;-53
2021/04/22 02:27:31;;;;;;;22.10;15.75;;;;;;;7.49;100.00;96320.50;5046699;28;20134;-54
2021/04/22 02:29:59;;;;;;;22.30;15.77;;;;;;;7.14;100.00;96319.03;5049450;28;20075;-53
2021/04/22 02:32:27;;;;;;;21.50;16.08;;;;;;;7.06;100.00;96324.09;5044607;28;20072;-55
2021/04/22 02:34:54;;;;;;;22.20;16.17;;;;;;;7.12;100.00;96325.38;5046503;28;20063;-51
2021/04/22 02:37:22;;;;;;;22.52;16.10;;;;;;;7.03;100.00;96331.38;5047386;28;20064;-51
2021/04/22 02:39:49;;;;;;;21.45;16.13;;;;;;;6.98;100.00;96325.66;5047612;28;20068;-51
2021/04/22 02:42:16;;;;;;;24.20;16.95;;;;;;;7.05;100.00;96324.22;5045528;28;20069;-50
2021/04/22 02:44:44;;;;;;;26.15;16.83;;;;;;;6.94;100.00;96324.25;5047923;28;20065;-51
2021/04/22 02:47:13;;;;;;;25.98;16.88;;;;;;;6.96;100.00;96320.56;5042974;28;20065;-52
2021/04/22 02:49:40;;;;;;;23.40;16.27;;;;;;;6.65;100.00;96324.84;5041310;28;20467;-49
2021/04/22 02:52:08;;;;;;;23.40;16.58;;;;;;;6.75;100.00;96319.72;5045548;28;20084;-53
2021/04/22 02:54:36;;;;;;;22.67;16.55;;;;;;;6.69;100.00;96321.03;5049241;28;20106;-50
2021/04/22 02:57:04;;;;;;;25.48;17.23;;;;;;;6.81;100.00;96319.19;5039194;28;20076;-50
2021/04/22 02:59:32;;;;;;;24.83;17.45;;;;;;;6.53;100.00;96310.94;5037841;28;20092;-54
2021/04/22 03:01:59;;;;;;;25.08;17.27;;;;;;;6.79;100.00;96321.94;5035456;28;20065;-49
2021/04/22 03:04:28;;;;;;;24.42;17.13;;;;;;;6.57;100.00;96319.38;5041413;28;20521;-48
2021/04/22 03:06:55;;;;;;;20.80;15.55;;;;;;;6.50;100.00;96323.44;5035068;28;22009;-50
2021/04/22 03:09:23;;;;;;;20.70;14.23;;;;;;;6.04;100.00;96337.56;5034720;28;20545;-49
2021/04/22 03:11:50;;;;;;;18.17;13.90;;;;;;;6.11;100.00;96329.09;5039462;28;20076;-57
2021/04/22 03:14:18;;;;;;;18.33;13.90;;;;;;;6.30;100.00;96319.81;5044826;28;20064;-50
2021/04/22 03:16:45;;;;;;;21.23;15.25;;;;;;;6.37;100.00;96324.44;5041008;28;20463;-53
2021/04/22 03:19:12;;;;;;;21.25;15.52;;;;;;;6.28;100.00;96322.53;5039871;28;20100;-50
2021/04/22 03:21:41;;;;;;;20.13;15.55;;;;;;;6.55;100.00;96319.50;5045898;28;20084;-51
2021/04/22 03:24:09;;;;;;;22.08;15.77;;;;;;;6.55;100.00;96321.31;5030952;28;20070;-50
2021/04/22 03:26:37;;;;;;;25.02;17.65;;;;;;;6.35;100.00;96326.34;5042303;28;20072;-49
2021/04/22 03:29:05;;;;;;;25.13;17.10;;;;;;;6.57;100.00;96324.63;5037229;28;20072;-52
2021/04/22 03:31:32;;;;;;;23.05;17.30;;;;;;;6.72;100.00;96326.03;5031247;28;20512;-51
2021/04/22 03:33:59;;;;;;;25.98;17.23;;;;;;;6.54;100.00;96323.09;5044772;28;20527;-51
2021/04/22 03:36:27;;;;;;;25.60;17.55;;;;;;;6.70;100.00;96327.09;5045130;28;20073;-51
2021/04/22 03:38:56;;;;;;;23.88;16.50;;;;;;;6.77;100.00;96329.09;5038116;28;20439;-52
2021/04/22 03:41:23;;;;;;;23.92;16.58;;;;;;;6.96;100.00;96341.53;5049571;28;20079;-53
2021/04/22 03:43:50;;;;;;;20.50;15.73;;;;;;;6.94;100.00;96337.38;5043444;28;20081;-51
2021/04/22 03:46:18;;;;;;;21.55;15.27;;;;;;;6.95;100.00;96342.50;5044332;28;20077;-53
2021/04/22 03:48:46;;;;;;;19.55;14.48;;;;;;;6.54;100.00;96349.28;5047259;28;20076;-53
2021/04/22 03:51:14;;;;;;;23.52;15.40;;;;;;;6.27;100.00;96344.47;5044998;28;20060;-49
2021/04/22 03:53:41;;;;;;;19.10;14.88;;;;;;;6.35;100.00;96351.69;5043817;28;20087;-53
2021/04/22 03:56:10;;;;;;;25.50;16.00;;;;;;;6.35;100.00;96356.94;5047021;28;20084;-49
2021/04/22 03:58:37;;;;;;;22.15;16.00;;;;;;;6.33;100.00;96359.69;5042867;28;20070;-53
2021/04/22 04:01:05;;;;;;;22.85;14.80;;;;;;;6.41;100.00;96370.38;5045297;28;20085;-53
2021/04/22 04:03:32;;;;;;;20.83;14.63;;;;;;;6.49;100.00;96368.94;5048617;28;20454;-50
2021/04/22 04:06:00;;;;;;;27.15;15.70;;;;;;;6.49;100.00;96368.94;5043543;28;20150;-53
2021/04/22 04:08:27;;;;;;;21.88;15.15;;;;;;;6.62;100.00;96375.72;5045886;28;20072;-53
2021/04/22 04:10:55;;;;;;;24.88;16.38;;;;;;;6.73;100.00;96374.84;5044232;28;20701;-49
2021/04/22 04:13:23;;;;;;;22.83;17.10;;;;;;;6.80;100.00;96373.38;5044550;28;20061;-48
2021/04/22 04:15:50;;;;;;;25.50;17.13;;;;;;;6.89;100.00;96375.28;5045169;28;20076;-52
2021/04/22 04:18:19;;;;;;;25.83;17.35;;;;;;;6.49;100.00;96380.25;5044962;28;20080;-50
2021/04/22 04:20:47;;;;;;;24.75;17.40;;;;;;;6.90;100.00;96376.09;5042132;28;20072;-52
2021/04/22 04:23:15;;;;;;;23.42;17.35;;;;;;;6.78;100.00;96380.56;5046664;28;20083;-53
2021/04/22 04:25:43;;;;;;;24.30;17.30;;;;;;;7.04;100.00;96388.94;5042954;28;20079;-55
2021/04/22 04:28:10;;;;;;;25.08;16.48;;;;;;;6.92;100.00;96384.69;5043302;28;20106;-50
2021/04/22 04:30:39;;;;;;;21.60;15.43;;;;;;;7.12;100.00;96385.69;5032945;28;20096;-51
2021/04/22 04:33:06;;;;;;;24.27;16.40;;;;;;;7.34;100.00;96388.22;5036550;28;20063;-54
2021/04/22 04:35:34;;;;;;;26.58;16.65;;;;;;;7.34;100.00;96392.63;5023474;28;20061;-54
2021/04/22 04:38:02;;;;;;;22.48;15.95;;;;;;;7.48;100.00;96391.50;5041115;28;20068;-56
2021/04/22 04:40:29;;;;;;;24.63;15.18;;;;;;;7.46;100.00;96390.78;5040415;28;20125;-51
2021/04/22 04:42:58;;;;;;;22.88;15.40;;;;;;;7.66;100.00;96391.75;5038443;28;20454;-50
2021/04/22 04:45:25;;;;;;;23.83;15.00;;;;;;;7.77;100.00;96395.13;5045499;28;20080;-53
2021/04/22 04:47:54;;;;;;;21.73;14.70;;;;;;;7.77;100.00;96397.75;5042975;28;20069;-52
2021/04/22 04:50:22;;;;;;;22.58;15.25;;;;;;;7.84;100.00;96403.31;5033451;28;20087;-54
2021/04/22 04:52:52;;;;;;;18.77;13.68;;;;;;;7.90;100.00;96407.25;5033454;28;20073;-50
2021/04/22 04:55:19;;;;;;;20.23;14.00;;;;;;;8.06;100.00;96412.88;5042188;28;20519;-52
2021/04/22 04:57:47;;;;;;;21.20;14.25;;;;;;;8.05;100.00;96414.66;5039973;28;20106;-53
2021/04/22 05:00:17;;;;;;;18.58;14.18;;;;;;;8.18;100.00;96422.31;5045611;28;20061;-52
2021/04/22 05:02:46;;;;;;;19.02;14.13;;;;;;;8.22;100.00;96413.19;5043526;28;20068;-55
2021/04/22 05:05:16;;;;;;;19.70;14.32;;;;;;;8.35;100.00;96410.38;5043915;28;20068;-55
2021/04/22 05:07:43;;;;;;;19.40;13.93;;;;;;;8.53;100.00;96418.47;5040606;28;20064;-50
2021/04/22 05:10:12;;;;;;;22.20;15.10;;;;;;;8.48;100.00;96423.31;5043792;28;20743;-51
2021/04/22 05:12:39;;;;;;;20.13;14.45;;;;;;;8.76;100.00;96427.81;5044939;28;20569;-54
2021/04/22 05:15:08;;;;;;;20.48;14.15;;;;;;;8.89;100.00;96429.41;5042418;28;20068;-52
2021/04/22 05:17:35;;;;;;;20.13;14.82;;;;;;;9.30;100.00;96432.78;5035571;28;20073;-51
2021/04/22 05:20:04;;;;;;;20.25;15.05;;;;;;;9.39;100.00;96429.31;5046312;28;20068;-53
2021/04/22 05:22:33;;;;;;;17.48;13.40;;;;;;;9.69;100.00;96444.97;5042175;28;20068;-55
2021/04/22 05:25:00;;;;;;;21.40;14.30;;;;;;;10.01;100.00;96446.44;5031827;28;20081;-50
2021/04/22 05:27:28;;;;;;;22.20;15.20;;;;;;;9.69;100.00;96447.59;5043718;28;20085;-47
2021/04/22 05:29:55;;;;;;;19.90;15.13;;;;;;;9.84;100.00;96449.81;5031434;28;20061;-51
2021/04/22 05:32:22;;;;;;;20.25;15.25;;;;;;;9.76;100.00;96455.78;5034747;28;20065;-53
2021/04/22 05:34:50;;;;;;;24.05;15.32;;;;;;;9.65;100.00;96454.13;5040285;28;20070;-49
2021/04/22 05:37:18;;;;;;;20.83;14.45;;;;;;;9.51;100.00;96459.81;5043207;28;20519;-54
2021/04/22 05:39:47;;;;;;;19.48;14.23;;;;;;;9.66;100.00;96465.47;5043350;28;20083;-52
2021/04/22 05:42:14;;;;;;;21.13;15.20;;;;;;;9.71;100.00;96458.00;5043854;28;20522;-51
2021/04/22 05:44:43;;;;;;;22.00;15.43;;;;;;;9.71;100.00;96461.47;5041601;28;20056;-56
2021/04/22 05:47:10;;;;;;;21.63;15.40;;;;;;;10.13;100.00;96455.03;5039047;28;20067;-49
2021/04/22 05:49:38;;;;;;;21.60;15.25;;;;;;;10.38;100.00;96457.09;5040400;28;20064;-55
2021/04/22 05:52:06;;;;;;;19.85;14.93;;;;;;;10.82;100.00;96451.22;5042278;28;20080;-55
2021/04/22 05:54:33;;;;;;;23.10;15.85;;;;;;;10.59;100.00;96450.78;5043251;28;20095;-53
2021/04/22 05:57:02;;;;;;;19.95;14.75;;;;;;;11.03;100.00;96453.63;5047577;28;20060;-55
2021/04/22 05:59:30;;;;;;;19.48;14.80;;;;;;;11.33;100.00;96460.41;5048359;28;20068;-51
2021/04/22 06:01:58;;;;;;;19.83;14.70;;;;;;;11.41;100.00;96461.28;5048114;28;20057;-48
2021/04/22 06:04:25;;;;;;;21.05;15.50;;;;;;;11.35;100.00;96458.41;5043747;28;20067;-50
2021/04/22 06:06:53;;;;;;;21.48;15.32;;;;;;;11.53;100.00;96464.56;5051501;28;20510;-56
2021/04/22 06:09:20;;;;;;;20.20;14.60;;;;;;;11.57;100.00;96468.56;5042788;28;20469;-49
2021/04/22 06:11:47;;;;;;;19.52;13.95;;;;;;;11.74;100.00;96463.44;5045216;28;20152;-53
2021/04/22 06:14:16;;;;;;;19.02;13.80;;;;;;;11.52;100.00;96462.88;5044265;28;20060;-56
2021/04/22 06:16:43;;;;;;;19.85;14.77;;;;;;;11.52;100.00;96467.34;5043034;28;20468;-55
2021/04/22 06:19:11;;;;;;;21.08;14.13;;;;;;;11.44;100.00;96467.25;5041753;28;20489;-54
2021/04/22 06:21:38;;;;;;;18.25;13.68;;;;;;;11.35;100.00;96476.91;5046469;28;20080;-52
2021/04/22 06:24:06;;;;;;;20.30;12.73;;;;;;;11.29;100.00;96469.59;5044919;28;20064;-53
2021/04/22 06:26:34;;;;;;;18.63;12.38;;;;;;;11.28;100.00;96467.91;5032120;28;20510;-55
2021/04/22 06:29:04;;;;;;;17.58;13.73;;;;;;;11.13;100.00;96471.06;5048324;28;20075;-54
2021/04/22 06:31:33;;;;;;;20.83;14.95;;;;;;;11.19;100.00;96471.47;5041847;28;20079;-57
2021/04/22 06:34:00;;;;;;;20.52;15.02;;;;;;;11.40;100.00;96472.00;5046178;28;20099;-52
2021/04/22 06:36:28;;;;;;;20.55;14.38;;;;;;;11.21;100.00;96475.59;5047786;28;20081;-53
2021/04/22 06:38:56;;;;;;;19.58;14.32;;;;;;;11.47;100.00;96478.34;5045966;28;20068;-53
2021/04/22 06:41:23;;;;;;;19.42;13.70;;;;;;;11.71;100.00;96480.41;5041744;28;20084;-52
2021/04/22 06:43:50;;;;;;;20.00;14.75;;;;;;;12.31;100.00;96480.56;5044850;28;20069;-50
2021/04/22 06:46:18;;;;;;;20.52;14.48;;;;;;;12.25;100.00;96485.66;5043735;28;20065;-50
2021/04/22 06:48:46;;;;;;;21.25;15.43;;;;;;;12.00;100.00;96489.94;5049814;28;20091;-55
2021/04/22 06:51:14;;;;;;;18.90;14.07;;;;;;;11.99;100.00;96494.38;5043712;28;20083;-55
2021/04/22 06:53:41;;;;;;;20.50;14.32;;;;;;;12.25;100.00;96497.09;5045249;28;20136;-51
2021/04/22 06:56:09;;;;;;;22.23;15.40;;;;;;;12.77;100.00;96491.78;5046777;28;20064;-48
2021/04/22 06:58:37;;;;;;;20.52;15.25;;;;;;;12.77;100.00;96502.38;5047877;28;20068;-52
2021/04/22 07:01:05;;;;;;;20.70;14.77;;;;;;;12.74;100.00;96509.78;5042561;28;20655;-48
2021/04/22 07:03:32;;;;;;;18.95;14.85;;;;;;;12.93;100.00;96514.84;5050414;28;20069;-47
2021/04/22 07:06:00;;;;;;;20.92;15.35;;;;;;;13.13;100.00;96502.19;5043062;28;20064;-52
2021/04/22 07:08:28;;;;;;;19.88;15.05;;;;;;;13.23;100.00;96507.38;5044893;28;20076;-56
2021/04/22 07:10:57;;;;;;;20.52;14.90;;;;;;;13.01;100.00;96522.84;5046421;28;20075;-52
2021/04/22 07:13:25;;;;;;;19.13;14.88;;;;;;;12.51;100.00;96533.28;5043581;28;20065;-48
2021/04/22 07:15:52;;;;;;;17.50;13.05;;;;;;;12.32;100.00;96537.78;5048567;28;20076;-50
2021/04/22 07:18:24;;;;;;;19.77;14.43;;;;;;;12.39;100.00;96543.28;5044430;28;20434;-46
2021/04/22 07:20:51;;;;;;;21.27;16.02;;;;;;;12.41;100.00;96537.84;5045617;28;20073;-51
2021/04/22 07:23:20;;;;;;;23.38;14.85;;;;;;;12.78;100.00;96541.06;5043696;28;20699;-48
2021/04/22 07:25:48;;;;;;;19.83;14.23;;;;;;;12.65;100.00;96540.66;5048539;28;20084;-51
2021/04/22 07:28:16;;;;;;;22.58;15.15;;;;;;;13.13;100.00;96533.97;5041891;28;20084;-55
2021/04/22 07:30:44;;;;;;;21.02;15.52;;;;;;;13.29;100.00;96539.38;5048800;28;20077;-54
2021/04/22 07:33:12;;;;;;;22.13;14.23;;;;;;;13.49;100.00;96537.31;5045296;28;20076;-55
2021/04/22 07:35:40;;;;;;;19.85;15.73;;;;;;;14.09;100.00;96543.38;5045461;28;20063;-48
2021/04/22 07:38:09;;;;;;;20.05;15.43;;;;;;;13.97;100.00;96540.19;5043481;28;20061;-55
2021/04/22 07:40:56;;;;;;;;;;;;;;;;;;;;;
2021/04/22 07:43:39;;;;;;;22.45;14.93;;;;;;;14.23;99.34;96545.38;4974091;28;20805;-54
2021/04/22 07:46:08;;;;;;;20.35;14.70;;;;;;;13.94;98.84;96552.00;5014440;28;20593;-57
2021/04/22 07:48:45;;;;;;;20.20;14.60;;;;;;;13.98;96.99;96552.50;5048189;28;20048;-55
2021/04/22 07:51:21;;;;;;;22.08;15.20;;;;;;;14.34;95.01;96554.81;4966117;28;20053;-52
2021/04/22 07:53:52;;;;;;;19.67;14.77;;;;;;;14.14;100.00;96552.50;5030711;28;20098;-53
2021/04/22 07:56:22;;;;;;;21.60;15.77;;;;;;;14.93;97.46;96552.78;4983252;28;20428;-56
2021/04/22 07:58:53;;;;;;;20.58;15.05;;;;;;;15.12;88.38;96554.25;5027931;28;20503;-53
2021/04/22 08:01:21;;;;;;;16.58;13.77;;;;;;;15.14;86.29;96565.53;5036310;28;20515;-54
2021/04/22 08:03:48;;;;;;;20.63;16.05;;;;;;;14.73;90.70;96555.03;5027197;28;20455;-54
2021/04/22 08:06:17;;;;;;;18.30;13.93;;;;;;;14.37;91.86;96565.09;5038182;28;20075;-56
2021/04/22 08:08:44;;;;;;;21.35;15.55;;;;;;;14.43;93.41;96556.50;5037021;28;20071;-55
2021/04/22 08:11:12;;;;;;;22.77;16.45;;;;;;;14.29;100.00;96559.81;5038857;28;20065;-55
2021/04/22 08:13:40;;;;;;;21.92;16.45;;;;;;;14.40;89.75;96562.94;5033731;28;20068;-53
2021/04/22 08:16:10;;;;;;;22.20;16.55;;;;;;;14.85;88.09;96558.13;5029103;28;20088;-57
2021/04/22 08:18:38;;;;;;;19.50;15.80;;;;;;;14.79;81.83;96559.63;5038669;28;20538;-55
2021/04/22 08:21:06;;;;;;;21.85;15.85;;;;;;;15.06;83.99;96555.75;5035208;28;20068;-56
2021/04/22 08:23:34;;;;;;;22.80;16.80;;;;;;;15.04;89.02;96567.56;5025972;28;20096;-56
2021/04/22 08:26:08;;;;;;;20.38;16.23;;;;;;;14.96;88.10;96563.91;5034434;28;20076;-54
2021/04/22 08:31:58;;;;;;;22.15;16.02;;;;;;;15.75;77.62;96564.00;5017385;28;20495;-54
2021/04/22 08:34:27;;;;;;;21.35;16.17;;;;;;;15.78;77.15;96568.97;5031818;28;20081;-55
2021/04/22 08:36:54;;;;;;;19.85;15.60;;;;;;;15.71;77.79;96578.63;5038190;28;20457;-56
2021/04/22 08:39:22;;;;;;;22.15;16.55;;;;;;;15.95;75.59;96576.84;5033026;28;20407;-56
2021/04/22 08:41:52;;;;;;;22.02;16.30;;;;;;;16.55;65.44;96582.25;5026630;28;20037;-57
2021/04/22 08:44:20;;;;;;;;;;;;;;;15.46;76.04;96577.06;5048883;23;20073;-62
2021/04/22 08:46:48;;;;;;;20.63;15.35;;;;;;;16.05;72.13;96585.44;5019585;28;19964;-61
2021/04/22 08:49:16;;;;;;;19.45;15.60;;;;;;;15.58;76.93;96594.28;5023162;28;20143;-61
2021/04/22 08:51:44;;;;;;;20.40;15.48;;;;;;;16.15;70.00;96588.69;5022496;28;20462;-62
2021/04/22 08:54:13;;;;;;;17.35;15.00;;;;;;;16.14;73.23;96592.38;5021561;28;20041;-63
2021/04/22 08:56:42;;;;;;;17.83;14.95;;;;;;;16.68;67.54;96597.63;5016826;28;20071;-62
2021/04/22 08:59:10;;;;;;;19.25;15.98;;;;;;;16.88;66.49;96599.81;5026467;28;20061;-67
2021/04/22 09:01:41;;;;;;;20.70;15.95;;;;;;;16.88;71.22;96600.63;5021099;28;20080;-60
2021/04/22 09:04:11;;;;;;;20.65;16.67;;;;;;;16.33;74.08;96599.88;5025658;28;20072;-60
2021/04/22 09:06:40;;;;;;;21.13;15.40;;;;;;;16.26;69.85;96603.44;5021773;28;20441;-59
2021/04/22 09:09:09;;;;;;;19.02;16.25;;;;;;;16.23;73.41;96611.75;5017412;28;20068;-63
2021/04/22 09:11:43;;;;;;;19.03;16.03;;;;;;;16.17;70.20;96604.47;5006348;28;20065;-63
2021/04/22 09:14:13;;;;;;;19.30;16.10;;;;;;;16.22;69.13;96610.13;5024660;28;20472;-62
2021/04/22 09:16:40;;;;;;;19.50;15.93;;;;;;;15.59;76.82;96612.72;5019918;28;20076;-60
2021/04/22 09:19:12;;;;;;;21.55;15.85;;;;;;;15.95;69.07;96606.09;5023483;28;20482;-53
2021/04/22 09:21:50;;;;;;;22.27;16.23;;;;;;;16.53;69.70;96607.41;5024750;28;20084;-62
2021/04/22 09:24:19;;;;;;;21.75;15.60;;;;;;;16.02;68.38;96609.72;5023440;28;20837;-63
2021/04/22 09:26:50;;;;;;;21.60;16.90;;;;;;;16.54;75.35;96609.03;5029274;28;20069;-64
2021/04/22 09:29:31;;;;;;;20.88;16.20;;;;;;;16.33;63.21;96613.19;5045189;28;20087;-58
2021/04/22 09:32:13;;;;;;;22.05;17.98;;;;;;;17.05;60.69;96611.97;5045333;28;20509;-58
2021/04/22 09:34:46;;;;;;;25.42;18.27;;;;;;;17.02;63.41;96613.16;5037523;28;20060;-62
2021/04/22 09:37:15;;;;;;;21.02;17.50;;;;;;;17.08;63.97;96609.78;5036048;28;20092;-64
2021/04/22 09:39:42;;;;;;;23.05;17.25;;;;;;;16.67;69.17;96616.44;5029707;28;20080;-62
2021/04/22 09:42:12;;;;;;;24.70;17.63;;;;;;;16.56;65.90;96615.03;5025666;28;20539;-59
2021/04/22 09:44:41;;;;;;;22.88;18.38;;;;;;;16.97;69.17;96612.06;5022550;28;20482;-60
2021/04/22 09:47:10;;;;;;;23.25;18.48;;;;;;;17.02;65.96;96615.81;5025833;28;20065;-64
2021/04/22 09:49:46;;;;;;;22.08;16.88;;;;;;;16.85;64.16;96615.13;5016192;28;20732;-62
2021/04/22 09:52:18;;;;;;;22.67;18.15;;;;;;;16.57;61.59;96612.19;5027408;28;20100;-62
2021/04/22 09:54:47;;;;;;;20.67;16.27;;;;;;;16.28;68.61;96620.88;5047919;28;20081;-62
2021/04/22 09:57:23;;;;;;;20.50;17.50;;;;;;;16.14;67.06;96618.97;5046055;28;20543;-63
2021/04/22 09:59:52;;;;;;;25.52;15.02;;;;;;;15.31;73.43;96615.00;5046678;28;20060;-62
2021/04/22 10:02:20;;;;;;;22.02;16.08;;;;;;;15.35;77.40;96618.97;5046287;28;20384;-59
2021/04/22 10:04:50;;;;;;;23.33;16.80;;;;;;;15.32;72.50;96616.63;5033233;28;20178;-57
2021/04/22 10:07:22;;;;;;;22.88;17.67;;;;;;;15.67;71.52;96611.91;5040759;28;20058;-59
2021/04/22 10:09:51;;;;;;;23.23;17.13;;;;;;;16.04;78.29;96613.06;5046670;28;20255;-60
2021/04/22 10:12:24;;;;;;;24.38;18.33;;;;;;;15.50;73.96;96621.72;5039997;28;20065;-57
2021/04/22 10:14:52;;;;;;;24.30;17.75;;;;;;;15.53;73.51;96615.25;5014256;28;20076;-61
2021/04/22 10:17:21;;;;;;;22.48;17.63;;;;;;;15.63;69.52;96616.69;5027328;28;20073;-58
2021/04/22 10:20:00;;;;;;;24.40;18.50;;;;;;;15.77;71.99;96614.34;5033169;28;20072;-58
2021/04/22 10:22:30;;;;;;;25.70;18.98;;;;;;;15.77;72.83;96617.00;5043070;28;20073;-58
2021/04/22 10:24:59;;;;;;;22.20;18.38;;;;;;;15.26;77.96;96611.16;5023001;28;20379;-59
2021/04/22 10:27:28;;;;;;;26.30;20.73;;;;;;;15.85;72.00;96611.63;5022595;28;20067;-60
2021/04/22 10:29:56;;;;;;;28.02;21.25;;;;;;;15.91;72.06;96610.94;5022276;28;20122;-56
2021/04/22 10:32:24;;;;;;;25.05;19.65;;;;;;;15.91;69.90;96608.28;5019359;28;20068;-59
2021/04/22 10:34:52;;;;;;;27.90;20.40;;;;;;;16.11;65.19;96617.50;5024570;28;20065;-61
2021/04/22 10:37:21;;;;;;;26.27;17.85;;;;;;;16.21;65.24;96616.41;5027615;28;20068;-60
2021/04/22 10:39:50;;;;;;;26.98;20.70;;;;;;;16.61;62.29;96616.13;5026967;28;20096;-57
2021/04/22 10:42:18;;;;;;;25.75;21.23;;;;;;;16.45;68.53;96607.44;5027848;28;20483;-60
2021/04/22 10:44:49;;;;;;;25.58;20.80;;;;;;;16.61;66.28;96612.66;5015555;28;20119;-56
2021/04/22 10:47:17;;;;;;;25.85;22.10;;;;;;;16.79;62.49;96612.38;5024211;28;20065;-57
2021/04/22 10:49:46;;;;;;;27.65;19.85;;;;;;;16.89;59.72;96615.59;5018472;28;20144;-60
2021/04/22 10:52:14;;;;;;;26.60;22.73;;;;;;;16.67;61.46;96614.59;5014498;28;20077;-59
2021/04/22 10:54:46;;;;;;;28.20;24.63;;;;;;;17.14;61.33;96608.22;5023108;28;20468;-61
2021/04/22 10:57:16;;;;;;;26.13;21.30;;;;;;;17.16;61.83;96610.69;5022585;28;20068;-62
2021/04/22 10:59:45;;;;;;;26.45;21.08;;;;;;;16.99;63.83;96607.34;5015003;28;20377;-63
2021/04/22 11:02:27;;;;;;;26.30;21.30;;;;;;;16.85;58.46;96603.66;5026540;28;20087;-59
2021/04/22 11:04:55;;;;;;;25.42;17.42;;;;;;;16.97;57.54;96602.22;5016828;28;20068;-63
2021/04/22 11:07:24;;;;;;;24.40;17.75;;;;;;;16.90;57.50;96605.81;5028831;28;20065;-60
2021/04/22 11:09:55;;;;;;;26.77;19.40;;;;;;;16.73;63.54;96597.09;5027922;28;20069;-60
2021/04/22 11:12:25;;;;;;;25.73;19.10;;;;;;;16.62;59.87;96606.34;5023790;28;20061;-62
2021/04/22 11:14:53;;;;;;;;;;;;;;;15.97;65.37;96596.97;5030342;28;20472;-60
2021/04/22 11:17:22;;;;;;;24.85;19.77;;;;;;;15.93;65.12;96595.63;5024322;28;19956;-58
2021/04/22 11:19:52;;;;;;;25.90;19.90;;;;;;;17.09;63.05;96591.94;5034626;28;20064;-63
2021/04/22 11:22:22;;;;;;;25.50;20.63;;;;;;;17.63;57.64;96591.69;5038414;28;20065;-61
2021/04/22 11:24:55;;;;;;;25.35;19.65;;;;;;;16.98;62.53;96592.41;5027124;28;20076;-61
2021/04/22 11:27:24;;;;;;;28.35;19.27;;;;;;;15.97;64.16;96588.97;5043351;28;20069;-65